Back to Top

Language: 

My Weather Underground Personal Weather Station Historical Data with Graphs...

Delerius Weather Station Historical Data
Daily Summary for January 18, 2018 Units:  Metric    English   Both
« Previous Day
Next Day »
Daily Weekly Monthly Yearly Custom
  High: Low: Average:
Temperature: 7.9 °C 1.6 °C 3.6 °C
Dew Point: 6.5 °C 0.7 °C 2.3 °C
Humidity: 97 % 86 % 92 %
Wind Speed: 45.1 km/h 0 km/h 14.3 km/h
Wind Gust: 69.2 km/h - -
Wind:- - West
Pressure: 1002.9 hPa 979.6 hPa -
Precipitation: 3.56 mm    
Historical Graphs
 
 
Tabular Data for January 18, 2018
Time Temperature Dew Point Pressure Wind Wind Speed Wind Gust Humidity Rainfall Rate (Hourly) solar Conditions
00:02 1.6 °C 0.9 °C 987.7 hPa South 9.7 km/h 16.1 km/h 95 % 0.76 mm 0 W/m2
00:07 1.7 °C 1 °C 987.7 hPa South 11.3 km/h 25.7 km/h 95 % 1.02 mm 0 W/m2
00:12 1.8 °C 1.1 °C 987.4 hPa South 12.9 km/h 22.5 km/h 95 % 1.02 mm 0 W/m2
00:17 1.9 °C 1.3 °C 987 hPa South 12.9 km/h 22.5 km/h 96 % 1.02 mm 0 W/m2
00:22 2.1 °C 1.6 °C 986.3 hPa South 12.9 km/h 20.9 km/h 96 % 0.76 mm 0 W/m2
00:27 2.2 °C 1.6 °C 986.3 hPa SSW 12.9 km/h 20.9 km/h 96 % 0.76 mm 0 W/m2
00:32 2.4 °C 1.8 °C 985.7 hPa South 12.9 km/h 22.5 km/h 96 % 0.76 mm 0 W/m2
00:37 2.5 °C 1.9 °C 985.3 hPa South 11.3 km/h 19.3 km/h 96 % 0.51 mm 0 W/m2
00:42 2.6 °C 2 °C 985 hPa South 14.5 km/h 20.9 km/h 96 % 0.76 mm 0 W/m2
00:47 2.8 °C 2.2 °C 984.6 hPa SSW 12.9 km/h 22.5 km/h 96 % 0.51 mm 0 W/m2
00:52 2.9 °C 2.3 °C 984.6 hPa SSW 12.9 km/h 22.5 km/h 96 % 0.51 mm 0 W/m2
00:57 3 °C 2.4 °C 984.3 hPa SSW 8 km/h 14.5 km/h 96 % 0.76 mm 0 W/m2
01:02 3.1 °C 2.5 °C 984 hPa SSW 12.9 km/h 22.5 km/h 96 % 0.76 mm 0 W/m2
01:07 3.6 °C 3 °C 983.6 hPa SW 14.5 km/h 33.8 km/h 96 % 0.76 mm 0 W/m2
01:12 3.9 °C 3.4 °C 983.6 hPa SW 17.7 km/h 30.6 km/h 97 % 0.51 mm 0 W/m2
01:17 4.2 °C 3.8 °C 983.3 hPa SW 17.7 km/h 24.1 km/h 97 % 0.76 mm 0 W/m2
01:22 4.4 °C 3.9 °C 983.3 hPa SW 14.5 km/h 24.1 km/h 97 % 0.76 mm 0 W/m2
01:27 4.6 °C 4 °C 983.3 hPa WSW 14.5 km/h 20.9 km/h 96 % 0.76 mm 0 W/m2
01:32 5.2 °C 4.8 °C 983 hPa WSW 29 km/h 56.3 km/h 97 % 1.02 mm 0 W/m2
01:37 6.1 °C 5.7 °C 982.6 hPa West 29 km/h 45.1 km/h 97 % 1.02 mm 0 W/m2
01:43 6.6 °C 6.2 °C 982.6 hPa West 27.4 km/h 43.5 km/h 97 % 0.76 mm 0 W/m2
01:48 6.9 °C 6.3 °C 982.6 hPa West 29 km/h 45.1 km/h 96 % 1.02 mm 0 W/m2
01:53 7.1 °C 6.3 °C 982.6 hPa WSW 29 km/h 45.1 km/h 95 % 1.02 mm 0 W/m2
01:58 7.4 °C 6.5 °C 981.9 hPa West 35.4 km/h 49.9 km/h 94 % 0.76 mm 0 W/m2
02:03 7.5 °C 6.4 °C 981.9 hPa West 30.6 km/h 46.7 km/h 93 % 0.76 mm 0 W/m2
02:08 7.6 °C 6.4 °C 981.6 hPa West 32.2 km/h 51.5 km/h 92 % 0.51 mm 0 W/m2
02:13 7.7 °C 6.5 °C 981.6 hPa WSW 32.2 km/h 53.1 km/h 92 % 0.76 mm 0 W/m2
02:18 7.8 °C 6.4 °C 981.3 hPa WSW 35.4 km/h 46.7 km/h 91 % 0.51 mm 0 W/m2
02:23 7.9 °C 6.3 °C 981.3 hPa West 30.6 km/h 43.5 km/h 90 % 0.51 mm 0 W/m2
02:28 7.9 °C 6.3 °C 981.6 hPa West 37 km/h 56.3 km/h 90 % 0.51 mm 0 W/m2
02:33 7.8 °C 6.3 °C 981.3 hPa West 32.2 km/h 51.5 km/h 90 % 0.51 mm 0 W/m2
02:38 7.8 °C 6.3 °C 981.3 hPa West 32.2 km/h 45.1 km/h 90 % 0.51 mm 0 W/m2
02:43 7.8 °C 6.1 °C 980.9 hPa West 32.2 km/h 49.9 km/h 89 % 0.51 mm 0 W/m2
02:48 7.9 °C 6.1 °C 980.9 hPa West 37 km/h 66 km/h 88 % 0.51 mm 0 W/m2
02:53 7.9 °C 5.9 °C 980.6 hPa WSW 32.2 km/h 49.9 km/h 87 % 0.51 mm 0 W/m2
02:58 7.8 °C 5.9 °C 980.6 hPa WSW 30.6 km/h 59.5 km/h 88 % 0.51 mm 0 W/m2
03:03 7.7 °C 5.8 °C 980.6 hPa WSW 33.8 km/h 49.9 km/h 88 % 0.51 mm 0 W/m2
03:08 7.6 °C 5.9 °C 980.2 hPa WSW 33.8 km/h 48.3 km/h 89 % 0.51 mm 0 W/m2
03:13 7.6 °C 5.9 °C 980.2 hPa WSW 32.2 km/h 45.1 km/h 89 % 0.25 mm 0 W/m2
03:18 7.6 °C 5.9 °C 979.9 hPa WSW 30.6 km/h 45.1 km/h 89 % 0.51 mm 0 W/m2
03:23 7.6 °C 5.9 °C 979.9 hPa WSW 40.2 km/h 57.9 km/h 89 % 0.51 mm 0 W/m2
03:28 7.6 °C 5.7 °C 979.6 hPa WSW 35.4 km/h 56.3 km/h 88 % 0.51 mm 0 W/m2
03:33 7.6 °C 5.6 °C 979.9 hPa West 45.1 km/h 66 km/h 87 % 0.25 mm 0 W/m2
03:38 7.6 °C 5.4 °C 980.2 hPa West 43.5 km/h 69.2 km/h 86 % 0.25 mm 0 W/m2
03:43 7.4 °C 5.2 °C 980.2 hPa West 43.5 km/h 67.6 km/h 86 % 0.25 mm 0 W/m2
03:48 7.1 °C 5.1 °C 980.6 hPa West 38.6 km/h 53.1 km/h 87 % 0.25 mm 0 W/m2
03:53 6.9 °C 4.9 °C 980.9 hPa West 35.4 km/h 51.5 km/h 87 % 0.25 mm 0 W/m2
03:58 6.7 °C 4.7 °C 980.9 hPa West 37 km/h 62.8 km/h 87 % 0.25 mm 0 W/m2
04:03 6.4 °C 4.7 °C 981.3 hPa West 32.2 km/h 53.1 km/h 89 % 0.25 mm 0 W/m2
04:08 6.3 °C 4.6 °C 981.3 hPa West 35.4 km/h 56.3 km/h 89 % 0.25 mm 0 W/m2
04:13 6.3 °C 4.8 °C 981.3 hPa West 35.4 km/h 48.3 km/h 90 % 0.25 mm 0 W/m2
04:18 6.2 °C 4.7 °C 982.6 hPa WNW 40.2 km/h 54.7 km/h 90 % 0 mm 0 W/m2
04:23 4.7 °C 2.7 °C 983.6 hPa NW 19.3 km/h 30.6 km/h 87 % 0.25 mm 0 W/m2
04:28 3.8 °C 2 °C 984.3 hPa NW 24.1 km/h 43.5 km/h 88 % 0.25 mm 0 W/m2
04:33 3 °C 1.5 °C 985 hPa NW 20.9 km/h 38.6 km/h 90 % 0.25 mm 0 W/m2
04:39 2.7 °C 1.4 °C 985.7 hPa NW 24.1 km/h 40.2 km/h 91 % 0.25 mm 0 W/m2
04:44 2.5 °C 1.2 °C 986.3 hPa WNW 27.4 km/h 43.5 km/h 91 % 0.25 mm 0 W/m2
04:49 2.4 °C 1.2 °C 986.7 hPa WNW 24.1 km/h 41.8 km/h 92 % 0.25 mm 0 W/m2
04:54 2.4 °C 1.2 °C 987.4 hPa WNW 22.5 km/h 40.2 km/h 92 % 0.25 mm 0 W/m2
04:59 2.4 °C 1.2 °C 988 hPa WNW 17.7 km/h 24.1 km/h 92 % 0.25 mm 0 W/m2
05:04 2.5 °C 1.3 °C 988.7 hPa WNW 20.9 km/h 38.6 km/h 92 % 0.25 mm 0 W/m2
05:09 2.5 °C 1.3 °C 989.1 hPa NW 27.4 km/h 46.7 km/h 92 % 0.25 mm 0 W/m2
05:14 2.6 °C 1.4 °C 989.4 hPa NW 22.5 km/h 45.1 km/h 92 % 0.25 mm 0 W/m2
05:19 2.6 °C 1.3 °C 990.1 hPa NW 19.3 km/h 32.2 km/h 91 % 0 mm 0 W/m2
05:24 2.6 °C 1.3 °C 990.4 hPa NW 22.5 km/h 38.6 km/h 91 % 0 mm 0 W/m2
05:29 2.7 °C 1.4 °C 990.7 hPa WNW 20.9 km/h 41.8 km/h 91 % 0 mm 0 W/m2
05:34 2.7 °C 1.2 °C 991.1 hPa NW 22.5 km/h 33.8 km/h 90 % 0 mm 0 W/m2
05:39 2.7 °C 1.2 °C 991.1 hPa WNW 17.7 km/h 25.7 km/h 90 % 0 mm 0 W/m2
05:44 2.7 °C 1.2 °C 991.8 hPa WNW 16.1 km/h 22.5 km/h 90 % 0 mm 0 W/m2
05:49 2.7 °C 1.2 °C 991.8 hPa NW 14.5 km/h 25.7 km/h 90 % 0 mm 0 W/m2
05:54 2.7 °C 1.2 °C 992.1 hPa WNW 14.5 km/h 22.5 km/h 90 % 0 mm 0 W/m2
05:59 2.7 °C 1.2 °C 992.4 hPa WNW 17.7 km/h 25.7 km/h 90 % 0 mm 0 W/m2
06:04 2.7 °C 1.2 °C 992.4 hPa WNW 14.5 km/h 24.1 km/h 90 % 0 mm 0 W/m2
06:09 2.6 °C 1.1 °C 992.8 hPa WNW 19.3 km/h 32.2 km/h 90 % 0 mm 0 W/m2
06:14 2.6 °C 1.1 °C 992.8 hPa WNW 16.1 km/h 22.5 km/h 90 % 0 mm 0 W/m2
06:19 2.6 °C 1.1 °C 993.1 hPa WNW 17.7 km/h 29 km/h 90 % 0 mm 0 W/m2
06:24 2.6 °C 1.1 °C 993.1 hPa WNW 17.7 km/h 33.8 km/h 90 % 0 mm 0 W/m2
06:29 2.6 °C 1.1 °C 993.5 hPa WNW 12.9 km/h 24.1 km/h 90 % 0 mm 0 W/m2
06:34 2.5 °C 1 °C 993.5 hPa WNW 17.7 km/h 30.6 km/h 90 % 0 mm 0 W/m2
06:39 2.5 °C 1 °C 993.8 hPa WNW 22.5 km/h 37 km/h 90 % 0 mm 0 W/m2
06:44 2.5 °C 1 °C 993.8 hPa WNW 16.1 km/h 25.7 km/h 90 % 0 mm 0 W/m2
06:49 2.4 °C 0.9 °C 994.1 hPa WNW 19.3 km/h 29 km/h 90 % 0 mm 0 W/m2
06:54 2.4 °C 0.9 °C 994.1 hPa WNW 19.3 km/h 32.2 km/h 90 % 0 mm 0 W/m2
06:59 2.4 °C 0.9 °C 994.5 hPa WNW 14.5 km/h 38.6 km/h 90 % 0 mm 0 W/m2
07:04 2.3 °C 0.8 °C 994.5 hPa WNW 17.7 km/h 32.2 km/h 90 % 0 mm 0 W/m2
07:09 2.3 °C 0.8 °C 994.8 hPa WNW 19.3 km/h 25.7 km/h 90 % 0 mm 0 W/m2
07:14 2.3 °C 0.8 °C 994.8 hPa WNW 17.7 km/h 29 km/h 90 % 0 mm 0 W/m2
07:19 2.3 °C 0.8 °C 994.8 hPa WNW 19.3 km/h 25.7 km/h 90 % 0 mm 0 W/m2
07:24 2.3 °C 0.8 °C 994.8 hPa WNW 19.3 km/h 33.8 km/h 90 % 0 mm 0 W/m2
07:29 2.2 °C 0.7 °C 995.1 hPa WNW 20.9 km/h 32.2 km/h 90 % 0 mm 0 W/m2
07:35 2.2 °C 0.7 °C 995.1 hPa WNW 17.7 km/h 25.7 km/h 90 % 0 mm 0 W/m2
07:40 2.2 °C 0.7 °C 995.1 hPa West 17.7 km/h 24.1 km/h 90 % 0 mm 0 W/m2
07:45 2.2 °C 0.7 °C 995.1 hPa West 17.7 km/h 30.6 km/h 90 % 0 mm 0 W/m2
07:50 2.2 °C 0.7 °C 995.5 hPa WNW 16.1 km/h 22.5 km/h 90 % 0 mm 0 W/m2
07:55 2.2 °C 0.7 °C 995.5 hPa WNW 16.1 km/h 22.5 km/h 90 % 0 mm 0 W/m2
08:00 2.3 °C 0.8 °C 995.5 hPa WNW 11.3 km/h 19.3 km/h 90 % 0 mm 0 W/m2
08:05 2.2 °C 0.7 °C 995.8 hPa WNW 19.3 km/h 25.7 km/h 90 % 0 mm 5 W/m2
08:10 2.3 °C 0.8 °C 996.2 hPa West 17.7 km/h 25.7 km/h 90 % 0 mm 5 W/m2
08:15 2.4 °C 0.9 °C 996.2 hPa West 17.7 km/h 29 km/h 90 % 0 mm 7 W/m2
08:20 2.4 °C 0.9 °C 996.2 hPa WNW 14.5 km/h 20.9 km/h 90 % 0 mm 9 W/m2
08:25 2.4 °C 0.9 °C 996.5 hPa WNW 17.7 km/h 24.1 km/h 90 % 0 mm 11 W/m2
08:30 2.4 °C 0.9 °C 996.5 hPa WNW 12.9 km/h 22.5 km/h 90 % 0 mm 12 W/m2
08:35 2.4 °C 0.9 °C 996.5 hPa WNW 16.1 km/h 20.9 km/h 90 % 0 mm 14 W/m2
08:40 2.4 °C 0.9 °C 996.5 hPa WNW 12.9 km/h 17.7 km/h 90 % 0 mm 16 W/m2
08:45 2.5 °C 1 °C 996.5 hPa WNW 11.3 km/h 19.3 km/h 90 % 0 mm 18 W/m2
08:50 2.5 °C 1 °C 996.8 hPa WNW 9.7 km/h 17.7 km/h 90 % 0 mm 18 W/m2
08:55 2.6 °C 1.1 °C 996.8 hPa WNW 16.1 km/h 22.5 km/h 90 % 0 mm 21 W/m2
09:00 2.6 °C 1.1 °C 997.2 hPa West 12.9 km/h 22.5 km/h 90 % 0 mm 26 W/m2
09:05 2.7 °C 1.2 °C 997.2 hPa WNW 12.9 km/h 20.9 km/h 90 % 0 mm 28 W/m2
09:10 2.8 °C 1.3 °C 997.2 hPa WNW 11.3 km/h 19.3 km/h 90 % 0 mm 49 W/m2
09:15 2.9 °C 1.4 °C 997.2 hPa WNW 14.5 km/h 24.1 km/h 90 % 0 mm 46 W/m2
09:20 3 °C 1.5 °C 997.2 hPa West 14.5 km/h 19.3 km/h 90 % 0 mm 58 W/m2
09:25 3.1 °C 1.6 °C 997.5 hPa West 12.9 km/h 17.7 km/h 90 % 0 mm 35 W/m2
09:30 3.2 °C 1.7 °C 997.5 hPa WSW 8 km/h 12.9 km/h 90 % 0 mm 30 W/m2
09:36 3.2 °C 1.7 °C 997.9 hPa WNW 11.3 km/h 20.9 km/h 90 % 0 mm 46 W/m2
09:41 3.3 °C 1.8 °C 997.9 hPa West 12.9 km/h 20.9 km/h 90 % 0 mm 176 W/m2
09:46 3.5 °C 2 °C 997.5 hPa West 14.5 km/h 20.9 km/h 90 % 0 mm 65 W/m2
09:51 3.6 °C 1.9 °C 997.5 hPa WNW 9.7 km/h 17.7 km/h 89 % 0 mm 169 W/m2
09:56 3.8 °C 2.2 °C 997.9 hPa WNW 4.8 km/h 11.3 km/h 89 % 0 mm 76 W/m2
10:01 3.9 °C 2.3 °C 997.9 hPa WNW 3.2 km/h 9.7 km/h 89 % 0 mm 91 W/m2
10:06 4 °C 2.3 °C 997.9 hPa WNW 3.2 km/h 9.7 km/h 89 % 0 mm 81 W/m2
10:11 4.1 °C 2.4 °C 997.9 hPa NNW 1.6 km/h 6.4 km/h 89 % 0 mm 47 W/m2
10:16 4.1 °C 2.3 °C 997.9 hPa Calm     88 % 0 mm 79 W/m2
10:21 4.1 °C 2.3 °C 998.2 hPa SW 4.8 km/h 11.3 km/h 88 % 0 mm 95 W/m2
10:26 4.1 °C 2.3 °C 998.2 hPa West 3.2 km/h 6.4 km/h 88 % 0 mm 54 W/m2
10:31 4.1 °C 2.3 °C 998.2 hPa Calm   4.8 km/h 88 % 0 mm 188 W/m2
10:36 4.2 °C 2.4 °C 998.2 hPa WNW 1.6 km/h 8 km/h 88 % 0 mm 97 W/m2
10:41 4.2 °C 2.4 °C 998.2 hPa WNW 1.6 km/h 8 km/h 88 % 0 mm 95 W/m2
10:46 4.4 °C 2.7 °C 998.2 hPa Calm   1.6 km/h 89 % 0 mm 309 W/m2
10:51 4.7 °C 2.9 °C 998.2 hPa WSW 4.8 km/h 8 km/h 88 % 0 mm 62 W/m2
10:56 4.8 °C 2.8 °C 998.2 hPa SW 3.2 km/h 8 km/h 87 % 0 mm 123 W/m2
11:01 4.8 °C 2.8 °C 998.5 hPa SW 9.7 km/h 16.1 km/h 87 % 0 mm 62 W/m2
11:06 4.7 °C 2.7 °C 998.5 hPa WSW 8 km/h 14.5 km/h 87 % 0 mm 42 W/m2
11:11 4.6 °C 2.6 °C 998.5 hPa WSW 8 km/h 16.1 km/h 87 % 0 mm 65 W/m2
11:16 4.6 °C 2.8 °C 998.5 hPa West 9.7 km/h 16.1 km/h 88 % 0 mm 97 W/m2
11:21 4.6 °C 2.8 °C 998.5 hPa West 6.4 km/h 11.3 km/h 88 % 0 mm 77 W/m2
11:26 4.6 °C 2.8 °C 998.5 hPa West 4.8 km/h 11.3 km/h 88 % 0 mm 84 W/m2
11:31 4.6 °C 2.9 °C 998.5 hPa WSW 4.8 km/h 11.3 km/h 89 % 0 mm 109 W/m2
11:36 4.6 °C 2.9 °C 998.5 hPa West 6.4 km/h 12.9 km/h 89 % 0 mm 65 W/m2
11:41 4.7 °C 3.1 °C 998.5 hPa WSW 6.4 km/h 11.3 km/h 89 % 0 mm 49 W/m2
11:46 4.7 °C 3.1 °C 998.5 hPa West 8 km/h 14.5 km/h 89 % 0 mm 28 W/m2
11:51 4.7 °C 3.1 °C 998.5 hPa West 3.2 km/h 8 km/h 89 % 0 mm 37 W/m2
11:56 4.8 °C 3.2 °C 998.5 hPa West 11.3 km/h 17.7 km/h 89 % 0 mm 90 W/m2
12:01 4.8 °C 3.2 °C 998.5 hPa WSW 8 km/h 12.9 km/h 89 % 0 mm 28 W/m2
12:06 4.8 °C 3 °C 998.5 hPa West 12.9 km/h 22.5 km/h 88 % 0 mm 28 W/m2
12:11 4.8 °C 3 °C 998.5 hPa West 14.5 km/h 20.9 km/h 88 % 0 mm 25 W/m2
12:16 4.7 °C 3.1 °C 998.5 hPa WSW 11.3 km/h 20.9 km/h 89 % 0 mm 53 W/m2
12:21 4.6 °C 2.9 °C 998.5 hPa West 8 km/h 12.9 km/h 89 % 0.25 mm 42 W/m2
12:26 4.5 °C 3 °C 998.5 hPa WNW 12.9 km/h 17.7 km/h 90 % 0.25 mm 83 W/m2
12:31 4.4 °C 2.9 °C 998.5 hPa West 12.9 km/h 20.9 km/h 90 % 0.25 mm 83 W/m2
12:36 4.3 °C 2.8 °C 998.5 hPa West 11.3 km/h 17.7 km/h 90 % 0.25 mm 79 W/m2
12:41 4.3 °C 2.8 °C 998.5 hPa West 14.5 km/h 19.3 km/h 90 % 0.25 mm 60 W/m2
12:46 4.2 °C 2.9 °C 998.5 hPa WNW 11.3 km/h 16.1 km/h 91 % 0.25 mm 113 W/m2
12:51 4.2 °C 2.9 °C 998.5 hPa West 11.3 km/h 19.3 km/h 91 % 0.51 mm 179 W/m2
12:56 4.3 °C 3.1 °C 998.5 hPa WNW 11.3 km/h 14.5 km/h 92 % 0.51 mm 192 W/m2
13:02 4.4 °C 3.2 °C 998.5 hPa NW 6.4 km/h 14.5 km/h 92 % 0.51 mm 100 W/m2
13:07 4.4 °C 3.2 °C 998.5 hPa WNW 9.7 km/h 14.5 km/h 92 % 0.51 mm 42 W/m2
13:12 4.4 °C 3.2 °C 998.5 hPa WNW 3.2 km/h 9.7 km/h 92 % 0.51 mm 39 W/m2
13:17 4.4 °C 3.2 °C 998.5 hPa NW 8 km/h 12.9 km/h 92 % 0.51 mm 47 W/m2
13:22 4.3 °C 3.1 °C 998.9 hPa WNW 14.5 km/h 24.1 km/h 92 % 0.51 mm 14 W/m2
13:27 4.2 °C 3 °C 998.5 hPa West 9.7 km/h 17.7 km/h 92 % 0.51 mm 19 W/m2
13:32 4.1 °C 2.9 °C 998.5 hPa West 14.5 km/h 20.9 km/h 92 % 0.51 mm 46 W/m2
13:37 3.9 °C 2.7 °C 998.5 hPa West 8 km/h 12.9 km/h 92 % 0.76 mm 42 W/m2
13:42 3.9 °C 2.7 °C 998.5 hPa West 3.2 km/h 8 km/h 92 % 0.76 mm 72 W/m2
13:47 3.9 °C 2.9 °C 998.5 hPa Calm   3.2 km/h 93 % 0.51 mm 83 W/m2
13:52 3.9 °C 2.9 °C 998.5 hPa Calm     93 % 0.51 mm 44 W/m2
13:57 3.8 °C 2.8 °C 998.5 hPa Calm   1.6 km/h 93 % 0.51 mm 178 W/m2
14:02 3.9 °C 2.9 °C 998.5 hPa West 3.2 km/h 6.4 km/h 93 % 0.51 mm 62 W/m2
14:07 3.8 °C 2.8 °C 998.5 hPa West 3.2 km/h 9.7 km/h 93 % 0.51 mm 60 W/m2
14:12 3.8 °C 2.8 °C 998.9 hPa West 1.6 km/h 6.4 km/h 93 % 0.51 mm 33 W/m2
14:17 3.7 °C 2.7 °C 998.9 hPa SSW 4.8 km/h 8 km/h 93 % 0.51 mm 18 W/m2
14:22 3.6 °C 2.6 °C 998.9 hPa SW 4.8 km/h 8 km/h 93 % 0.51 mm 25 W/m2
14:27 3.6 °C 2.6 °C 998.5 hPa WSW 11.3 km/h 22.5 km/h 93 % 0.25 mm 47 W/m2
14:32 3.6 °C 2.6 °C 998.5 hPa West 3.2 km/h 8 km/h 93 % 0.25 mm 26 W/m2
14:37 3.6 °C 2.6 °C 998.5 hPa West 6.4 km/h 16.1 km/h 93 % 0 mm 32 W/m2
14:42 3.6 °C 2.6 °C 998.9 hPa West 11.3 km/h 19.3 km/h 93 % 0 mm 44 W/m2
14:47 3.6 °C 2.6 °C 998.5 hPa West 6.4 km/h 11.3 km/h 93 % 0 mm 56 W/m2
14:52 3.5 °C 2.5 °C 998.9 hPa West 6.4 km/h 11.3 km/h 93 % 0 mm 42 W/m2
14:57 3.5 °C 2.5 °C 998.9 hPa WSW 8 km/h 12.9 km/h 93 % 0 mm 37 W/m2
15:02 3.5 °C 2.5 °C 998.9 hPa West 4.8 km/h 9.7 km/h 93 % 0 mm 40 W/m2
15:07 3.5 °C 2.5 °C 998.9 hPa West 9.7 km/h 14.5 km/h 93 % 0 mm 35 W/m2
15:12 3.4 °C 2.4 °C 998.9 hPa West 8 km/h 12.9 km/h 93 % 0 mm 32 W/m2
15:17 3.4 °C 2.4 °C 998.9 hPa West 8 km/h 12.9 km/h 93 % 0 mm 30 W/m2
15:22 3.4 °C 2.4 °C 998.9 hPa West 12.9 km/h 17.7 km/h 93 % 0 mm 23 W/m2
15:27 3.4 °C 2.4 °C 998.9 hPa West 12.9 km/h 16.1 km/h 93 % 0 mm 16 W/m2
15:33 3.4 °C 2.4 °C 998.9 hPa WSW 11.3 km/h 16.1 km/h 93 % 0 mm 14 W/m2
15:38 3.4 °C 2.4 °C 999.2 hPa West 9.7 km/h 16.1 km/h 93 % 0 mm 14 W/m2
15:43 3.4 °C 2.4 °C 999.2 hPa West 9.7 km/h 14.5 km/h 93 % 0 mm 12 W/m2
15:48 3.4 °C 2.4 °C 998.9 hPa West 6.4 km/h 12.9 km/h 93 % 0 mm 12 W/m2
15:53 3.3 °C 2.1 °C 999.2 hPa West 8 km/h 12.9 km/h 92 % 0 mm 11 W/m2
15:58 3.2 °C 2 °C 999.2 hPa West 6.4 km/h 12.9 km/h 92 % 0 mm 11 W/m2
16:03 3.1 °C 1.9 °C 999.2 hPa West 9.7 km/h 14.5 km/h 92 % 0 mm 9 W/m2
16:08 3 °C 2 °C 999.2 hPa WNW 6.4 km/h 11.3 km/h 93 % 0 mm 7 W/m2
16:13 3 °C 2 °C 999.2 hPa West 6.4 km/h 11.3 km/h 93 % 0 mm 5 W/m2
16:18 3.1 °C 2.1 °C 999.5 hPa West 6.4 km/h 11.3 km/h 93 % 0 mm 0 W/m2
16:23 3.1 °C 2.1 °C 999.5 hPa WNW 6.4 km/h 11.3 km/h 93 % 0 mm 0 W/m2
16:28 3.1 °C 2.1 °C 999.5 hPa WNW 6.4 km/h 9.7 km/h 93 % 0 mm 0 W/m2
16:33 3.1 °C 2.1 °C 999.5 hPa West 6.4 km/h 12.9 km/h 93 % 0 mm 0 W/m2
16:38 3.1 °C 2.1 °C 999.5 hPa West 3.2 km/h 9.7 km/h 93 % 0 mm 0 W/m2
16:43 3 °C 2 °C 999.5 hPa WNW 6.4 km/h 9.7 km/h 93 % 0 mm 0 W/m2
16:48 2.9 °C 1.9 °C 999.5 hPa WNW 8 km/h 12.9 km/h 93 % 0 mm 0 W/m2
16:53 2.9 °C 1.9 °C 999.5 hPa WNW 6.4 km/h 12.9 km/h 93 % 0 mm 0 W/m2
16:58 2.9 °C 1.9 °C 999.5 hPa WNW 11.3 km/h 14.5 km/h 93 % 0 mm 0 W/m2
17:03 2.9 °C 1.9 °C 999.5 hPa WNW 12.9 km/h 19.3 km/h 93 % 0 mm 0 W/m2
17:08 2.9 °C 1.9 °C 999.5 hPa WNW 9.7 km/h 16.1 km/h 93 % 0 mm 0 W/m2
17:13 3 °C 2.1 °C 999.9 hPa WNW 11.3 km/h 17.7 km/h 94 % 0 mm 0 W/m2
17:18 3.1 °C 2.2 °C 999.9 hPa WNW 8 km/h 12.9 km/h 94 % 0 mm 0 W/m2
17:23 3.1 °C 2.2 °C 999.9 hPa WNW 6.4 km/h 11.3 km/h 94 % 0 mm 0 W/m2
17:28 3.2 °C 2.3 °C 999.9 hPa WNW 11.3 km/h 24.1 km/h 94 % 0.25 mm 0 W/m2
17:33 3.2 °C 2.3 °C 1000.2 hPa WNW 11.3 km/h 17.7 km/h 94 % 0.25 mm 0 W/m2
17:38 3.2 °C 2.2 °C 1000.2 hPa WNW 12.9 km/h 19.3 km/h 93 % 0.25 mm 0 W/m2
17:43 3.2 °C 2.2 °C 1000.2 hPa West 14.5 km/h 22.5 km/h 93 % 0.25 mm 0 W/m2
17:48 3.1 °C 2.1 °C 1000.2 hPa WNW 14.5 km/h 20.9 km/h 93 % 0.25 mm 0 W/m2
17:53 3.1 °C 2.1 °C 1000.6 hPa West 12.9 km/h 24.1 km/h 93 % 0.25 mm 0 W/m2
17:58 2.9 °C 1.9 °C 1000.6 hPa West 11.3 km/h 16.1 km/h 93 % 0.25 mm 0 W/m2
18:03 2.8 °C 1.8 °C 1000.6 hPa West 11.3 km/h 16.1 km/h 93 % 0.25 mm 0 W/m2
18:08 2.8 °C 1.8 °C 1000.6 hPa WNW 8 km/h 11.3 km/h 93 % 0.25 mm 0 W/m2
18:13 2.7 °C 1.7 °C 1000.6 hPa WNW 9.7 km/h 14.5 km/h 93 % 0.25 mm 0 W/m2
18:19 2.7 °C 1.8 °C 1000.6 hPa WNW 9.7 km/h 14.5 km/h 94 % 0.25 mm 0 W/m2
18:24 2.7 °C 1.8 °C 1000.6 hPa WNW 11.3 km/h 16.1 km/h 94 % 0 mm 0 W/m2
18:29 2.7 °C 1.8 °C 1000.6 hPa WNW 12.9 km/h 19.3 km/h 94 % 0 mm 0 W/m2
18:34 2.7 °C 1.8 °C 1000.6 hPa WNW 11.3 km/h 16.1 km/h 94 % 0 mm 0 W/m2
18:39 2.7 °C 1.8 °C 1000.6 hPa WNW 11.3 km/h 16.1 km/h 94 % 0 mm 0 W/m2
18:44 2.7 °C 1.8 °C 1000.6 hPa West 8 km/h 11.3 km/h 94 % 0 mm 0 W/m2
18:49 2.6 °C 1.7 °C 1000.6 hPa WSW 6.4 km/h 9.7 km/h 94 % 0 mm 0 W/m2
18:54 2.6 °C 1.7 °C 1000.6 hPa WSW 3.2 km/h 8 km/h 94 % 0 mm 0 W/m2
18:59 2.4 °C 1.4 °C 1000.9 hPa West 3.2 km/h 8 km/h 93 % 0 mm 0 W/m2
19:04 2.3 °C 1.3 °C 1000.9 hPa WNW 4.8 km/h 9.7 km/h 93 % 0 mm 0 W/m2
19:09 2.3 °C 1.3 °C 1000.9 hPa WNW 6.4 km/h 9.7 km/h 93 % 0 mm 0 W/m2
19:14 2.3 °C 1.4 °C 1001.2 hPa West 8 km/h 11.3 km/h 94 % 0 mm 0 W/m2
19:19 2.3 °C 1.4 °C 1001.2 hPa West 4.8 km/h 9.7 km/h 94 % 0 mm 0 W/m2
19:24 2.3 °C 1.4 °C 1000.9 hPa WSW 8 km/h 12.9 km/h 94 % 0 mm 0 W/m2
19:29 2.4 °C 1.6 °C 1001.2 hPa West 9.7 km/h 14.5 km/h 94 % 0 mm 0 W/m2
19:34 2.6 °C 1.7 °C 1001.2 hPa West 11.3 km/h 17.7 km/h 94 % 0 mm 0 W/m2
19:39 2.7 °C 1.8 °C 1001.2 hPa West 8 km/h 16.1 km/h 94 % 0 mm 0 W/m2
19:44 2.7 °C 1.8 °C 1001.2 hPa West 11.3 km/h 16.1 km/h 94 % 0 mm 0 W/m2
19:49 2.8 °C 1.9 °C 1001.2 hPa West 11.3 km/h 16.1 km/h 94 % 0 mm 0 W/m2
19:54 2.7 °C 1.8 °C 1001.2 hPa West 8 km/h 12.9 km/h 94 % 0 mm 0 W/m2
19:59 2.7 °C 1.8 °C 1001.2 hPa West 11.3 km/h 14.5 km/h 94 % 0 mm 0 W/m2
20:04 2.7 °C 1.8 °C 1001.6 hPa West 11.3 km/h 20.9 km/h 94 % 0 mm 0 W/m2
20:09 2.7 °C 1.8 °C 1001.6 hPa West 16.1 km/h 22.5 km/h 94 % 0 mm 0 W/m2
20:14 2.6 °C 1.7 °C 1001.6 hPa West 11.3 km/h 16.1 km/h 94 % 0 mm 0 W/m2
20:19 2.6 °C 1.6 °C 1001.6 hPa West 11.3 km/h 17.7 km/h 93 % 0 mm 0 W/m2
20:24 2.5 °C 1.5 °C 1001.6 hPa West 11.3 km/h 16.1 km/h 93 % 0 mm 0 W/m2
20:29 2.5 °C 1.5 °C 1001.6 hPa West 11.3 km/h 16.1 km/h 93 % 0 mm 0 W/m2
20:34 2.5 °C 1.5 °C 1001.6 hPa West 12.9 km/h 19.3 km/h 93 % 0 mm 0 W/m2
20:39 2.5 °C 1.5 °C 1001.9 hPa West 12.9 km/h 20.9 km/h 93 % 0 mm 0 W/m2
20:44 2.5 °C 1.5 °C 1001.9 hPa West 12.9 km/h 19.3 km/h 93 % 0 mm 0 W/m2
20:50 2.5 °C 1.5 °C 1001.9 hPa WNW 12.9 km/h 19.3 km/h 93 % 0 mm 0 W/m2
20:55 2.6 °C 1.6 °C 1001.9 hPa West 12.9 km/h 17.7 km/h 93 % 0 mm 0 W/m2
21:00 2.6 °C 1.6 °C 1001.9 hPa West 11.3 km/h 16.1 km/h 93 % 0 mm 0 W/m2
21:05 2.6 °C 1.4 °C 1001.9 hPa West 12.9 km/h 17.7 km/h 92 % 0 mm 0 W/m2
21:10 2.5 °C 1.3 °C 1001.9 hPa West 12.9 km/h 17.7 km/h 92 % 0 mm 0 W/m2
21:15 2.5 °C 1.3 °C 1001.9 hPa West 12.9 km/h 17.7 km/h 92 % 0 mm 0 W/m2
21:20 2.5 °C 1.3 °C 1001.9 hPa WNW 12.9 km/h 17.7 km/h 92 % 0 mm 0 W/m2
21:25 2.5 °C 1.3 °C 1001.9 hPa WNW 14.5 km/h 22.5 km/h 92 % 0 mm 0 W/m2
21:30 2.6 °C 1.4 °C 1001.9 hPa WNW 14.5 km/h 22.5 km/h 92 % 0 mm 0 W/m2
21:35 2.6 °C 1.4 °C 1001.9 hPa West 14.5 km/h 19.3 km/h 92 % 0 mm 0 W/m2
21:40 2.6 °C 1.4 °C 1001.9 hPa West 12.9 km/h 25.7 km/h 92 % 0 mm 0 W/m2
21:45 2.7 °C 1.6 °C 1001.9 hPa West 14.5 km/h 20.9 km/h 92 % 0 mm 0 W/m2
21:50 2.7 °C 1.4 °C 1001.9 hPa West 12.9 km/h 19.3 km/h 91 % 0 mm 0 W/m2
21:55 2.7 °C 1.4 °C 1001.9 hPa West 14.5 km/h 24.1 km/h 91 % 0 mm 0 W/m2
22:00 2.6 °C 1.3 °C 1001.9 hPa WNW 12.9 km/h 17.7 km/h 91 % 0 mm 0 W/m2
22:05 2.6 °C 1.3 °C 1001.9 hPa WNW 16.1 km/h 24.1 km/h 91 % 0 mm 0 W/m2
22:10 2.6 °C 1.3 °C 1001.9 hPa WNW 14.5 km/h 19.3 km/h 91 % 0 mm 0 W/m2
22:15 2.6 °C 1.3 °C 1001.9 hPa WNW 16.1 km/h 24.1 km/h 91 % 0 mm 0 W/m2
22:20 2.6 °C 1.3 °C 1001.9 hPa WNW 12.9 km/h 19.3 km/h 91 % 0 mm 0 W/m2
22:25 2.5 °C 1.2 °C 1002.3 hPa WNW 12.9 km/h 20.9 km/h 91 % 0 mm 0 W/m2
22:30 2.5 °C 1.2 °C 1002.3 hPa WNW 20.9 km/h 30.6 km/h 91 % 0 mm 0 W/m2
22:35 2.6 °C 1.3 °C 1002.3 hPa WNW 17.7 km/h 30.6 km/h 91 % 0 mm 0 W/m2
22:40 2.6 °C 1.3 °C 1002.3 hPa WNW 14.5 km/h 22.5 km/h 91 % 0 mm 0 W/m2
22:45 2.5 °C 1 °C 1002.3 hPa WNW 14.5 km/h 24.1 km/h 90 % 0 mm 0 W/m2
22:50 2.4 °C 0.9 °C 1002.3 hPa West 12.9 km/h 20.9 km/h 90 % 0 mm 0 W/m2
22:55 2.4 °C 0.9 °C 1002.6 hPa West 11.3 km/h 20.9 km/h 90 % 0 mm 0 W/m2
23:00 2.4 °C 0.9 °C 1002.6 hPa WNW 14.5 km/h 20.9 km/h 90 % 0 mm 0 W/m2
23:05 2.4 °C 1.1 °C 1002.6 hPa WNW 14.5 km/h 24.1 km/h 91 % 0 mm 0 W/m2
23:10 2.4 °C 1.1 °C 1002.6 hPa WNW 12.9 km/h 25.7 km/h 91 % 0 mm 0 W/m2
23:15 2.4 °C 1.1 °C 1002.6 hPa WNW 14.5 km/h 19.3 km/h 91 % 0 mm 0 W/m2
23:20 2.4 °C 1.1 °C 1002.6 hPa WNW 12.9 km/h 25.7 km/h 91 % 0 mm 0 W/m2
23:25 2.4 °C 1.1 °C 1002.6 hPa WNW 12.9 km/h 19.3 km/h 91 % 0 mm 0 W/m2
23:30 2.4 °C 1.1 °C 1002.6 hPa WNW 14.5 km/h 25.7 km/h 91 % 0 mm 0 W/m2
23:35 2.4 °C 1.1 °C 1002.6 hPa WNW 16.1 km/h 24.1 km/h 91 % 0 mm 0 W/m2
23:40 2.5 °C 1.2 °C 1002.6 hPa WNW 12.9 km/h 17.7 km/h 91 % 0 mm 0 W/m2
23:45 2.5 °C 1.2 °C 1002.6 hPa WNW 11.3 km/h 20.9 km/h 91 % 0 mm 0 W/m2
23:50 2.4 °C 1.1 °C 1002.9 hPa WNW 9.7 km/h 14.5 km/h 91 % 0 mm 0 W/m2
23:55 2.3 °C 0.8 °C 1002.9 hPa WNW 9.7 km/h 16.1 km/h 90 % 0 mm 0 W/m2
Delerius-Weather
Compliments of Weather Underground - 2.25 mb

Data updates at regular intervals.